Time;durP1;ratioP1;P1;durP2;ratioP2;P2;SDS_P1;SDS_P2;PMS_P1;PMS_P2;Temp;Humidity;BMP_temperature;BMP_pressure;BME280_temperature;BME280_humidity;BME280_pressure;Samples;Min_cycle;Max_cycle;Signal;HPM_P1;HPM_P2
2022/08/26 00:00:38;;;;;;;11.82;4.47;;;;;;;20.76;80.03;101399.78;4900040;29;20044;-83
2022/08/26 00:03:04;;;;;;;18.73;4.50;;;;;;;20.75;79.77;101397.19;4915632;29;20051;-82
2022/08/26 00:05:30;;;;;;;15.27;4.65;;;;;;;20.72;80.17;101397.34;4916764;29;20043;-82
2022/08/26 00:07:56;;;;;;;14.02;3.90;;;;;;;20.69;79.94;101398.38;4919636;29;20459;-82
2022/08/26 00:10:21;;;;;;;16.15;4.05;;;;;;;20.67;79.71;101402.09;4899113;29;20032;-82
2022/08/26 00:12:47;;;;;;;9.02;3.80;;;;;;;20.65;80.20;101407.59;4902578;29;20044;-82
2022/08/26 00:15:15;;;;;;;11.43;3.53;;;;;;;20.57;80.30;101404.44;4919305;29;20024;-82
2022/08/26 00:17:42;;;;;;;15.77;3.90;;;;;;;20.55;80.36;101404.53;4905033;29;20481;-83
2022/08/26 00:20:09;;;;;;;11.82;3.60;;;;;;;20.54;80.12;101404.59;4899363;29;20493;-82
2022/08/26 00:22:34;;;;;;;14.10;3.95;;;;;;;20.54;80.11;101407.28;4889828;29;20461;-82
2022/08/26 00:25:00;;;;;;;15.30;3.80;;;;;;;20.49;80.50;101412.91;4916506;29;20122;-82
2022/08/26 00:27:25;;;;;;;9.85;3.40;;;;;;;20.47;80.24;101413.94;4899532;29;20513;-82
2022/08/26 00:29:51;;;;;;;10.13;3.10;;;;;;;20.46;80.52;101409.53;4918405;29;20119;-82
2022/08/26 00:32:16;;;;;;;21.38;4.40;;;;;;;20.45;80.64;101410.44;4883850;29;20079;-82
2022/08/26 00:34:42;;;;;;;11.98;3.17;;;;;;;20.46;80.36;101414.91;4897508;29;20040;-82
2022/08/26 00:37:09;;;;;;;11.43;3.20;;;;;;;20.46;80.15;101407.69;4899456;29;20040;-82
2022/08/26 00:39:34;;;;;;;7.97;2.88;;;;;;;20.44;79.83;101411.41;4914681;29;20039;-81
2022/08/26 00:42:00;;;;;;;15.05;3.75;;;;;;;20.45;80.27;101418.53;4881380;29;20377;-82
2022/08/26 00:44:25;;;;;;;11.02;3.42;;;;;;;20.41;80.43;101413.31;4896752;29;20043;-82
2022/08/26 00:46:58;;;;;;;13.18;3.13;;;;;;;20.43;79.78;101407.88;4901843;29;20083;-82
2022/08/26 00:49:39;;;;;;;16.40;3.58;;;;;;;20.40;79.58;101405.34;4900587;29;20040;-82
2022/08/26 00:52:13;;;;;;;12.98;2.80;;;;;;;20.38;80.50;101416.19;4920576;29;20040;-81
2022/08/26 00:54:45;;;;;;;17.45;3.20;;;;;;;20.39;80.71;101417.91;4921044;29;20039;-82
2022/08/26 00:57:14;;;;;;;14.10;3.25;;;;;;;20.43;80.20;101420.44;4899401;29;20519;-82
2022/08/26 00:59:41;;;;;;;13.27;3.05;;;;;;;20.37;80.51;101432.38;4906664;29;20055;-82
2022/08/26 01:02:07;;;;;;;12.25;3.13;;;;;;;20.37;80.69;101427.00;4921332;29;20276;-82
2022/08/26 01:04:35;;;;;;;21.40;3.72;;;;;;;20.36;81.01;101423.47;4915929;29;20091;-82
2022/08/26 01:07:02;;;;;;;17.17;3.35;;;;;;;20.38;81.05;101420.69;4917313;29;20025;-82
2022/08/26 01:09:28;;;;;;;11.25;3.00;;;;;;;20.40;80.67;101411.59;4920367;29;20024;-82
2022/08/26 01:11:57;;;;;;;12.00;2.63;;;;;;;20.39;81.13;101425.13;4898872;29;20481;-82
2022/08/26 01:14:28;;;;;;;15.10;3.30;;;;;;;20.41;80.44;101418.69;4898934;29;20052;-82
2022/08/26 01:16:54;;;;;;;13.43;3.42;;;;;;;20.41;81.13;101417.84;4910361;29;20040;-82
2022/08/26 01:19:35;;;;;;;10.50;3.38;;;;;;;20.39;80.53;101422.41;4897546;29;20171;-82
2022/08/26 01:22:03;;;;;;;14.13;3.20;;;;;;;20.36;81.00;101423.47;4898590;29;20122;-82
2022/08/26 01:24:30;;;;;;;9.70;3.30;;;;;;;20.37;80.82;101418.94;4914638;29;20048;-82
2022/08/26 01:27:03;;;;;;;6.15;2.47;;;;;;;20.41;80.70;101420.53;4901819;29;20202;-81
2022/08/26 01:29:32;;;;;;;10.30;2.85;;;;;;;20.44;79.68;101414.97;4915906;29;20083;-82
2022/08/26 01:31:58;;;;;;;12.38;2.90;;;;;;;20.47;80.38;101408.56;4904515;29;20050;-82
2022/08/26 01:34:25;;;;;;;10.98;3.20;;;;;;;20.47;80.62;101412.09;4921278;29;20035;-82
2022/08/26 01:36:57;;;;;;;15.30;3.28;;;;;;;20.48;80.46;101418.38;4911195;29;20039;-82
2022/08/26 01:39:23;;;;;;;12.20;3.38;;;;;;;20.46;80.63;101412.22;4918519;29;20032;-82
2022/08/26 01:41:52;;;;;;;11.20;3.17;;;;;;;20.43;81.06;101407.88;4895547;29;20036;-82
2022/08/26 01:44:21;;;;;;;10.07;3.03;;;;;;;20.39;80.86;101417.03;4923295;29;20062;-82
2022/08/26 01:46:49;;;;;;;10.77;2.75;;;;;;;20.39;80.70;101412.53;4903329;29;20031;-82
2022/08/26 01:49:15;;;;;;;10.02;3.08;;;;;;;20.41;80.85;101415.16;4899821;29;20481;-82
2022/08/26 01:51:43;;;;;;;16.42;3.53;;;;;;;20.41;81.01;101412.44;4911960;29;20024;-81
2022/08/26 01:54:09;;;;;;;13.02;2.58;;;;;;;20.42;80.90;101419.56;4915371;29;20499;-82
2022/08/26 01:56:36;;;;;;;11.70;2.95;;;;;;;20.43;80.14;101420.44;4919162;29;20134;-82
2022/08/26 01:59:06;;;;;;;9.25;2.80;;;;;;;20.41;80.72;101413.31;4919183;29;20040;-82
2022/08/26 02:01:32;;;;;;;10.85;3.17;;;;;;;20.41;80.98;101420.53;4918759;29;20127;-82
2022/08/26 02:04:20;;;;;;;10.65;3.38;;;;;;;20.44;79.99;101422.19;4921301;29;20131;-82
2022/08/26 02:06:46;;;;;;;12.65;2.90;;;;;;;20.39;81.00;101411.66;4901857;29;20400;-81
2022/08/26 02:09:13;;;;;;;11.88;2.88;;;;;;;20.39;80.90;101414.34;4915464;29;20032;-81
2022/08/26 02:11:38;;;;;;;10.10;2.38;;;;;;;20.41;80.36;101409.75;4927737;29;20024;-82
2022/08/26 02:14:08;;;;;;;12.43;2.75;;;;;;;20.40;80.17;101413.41;4926505;29;20046;-82
2022/08/26 02:16:39;;;;;;;9.67;3.17;;;;;;;20.41;80.64;101413.31;4920989;29;20032;-82
2022/08/26 02:19:09;;;;;;;12.27;2.90;;;;;;;20.35;80.85;101410.06;4927668;29;20299;-82
2022/08/26 02:21:37;;;;;;;12.55;2.80;;;;;;;20.32;79.72;101413.81;4918995;29;20028;-81
2022/08/26 02:24:16;;;;;;;10.27;2.63;;;;;;;20.31;80.48;101421.97;4892215;29;20076;-81
2022/08/26 02:26:44;;;;;;;9.57;2.60;;;;;;;20.28;80.78;101417.63;4885908;29;20036;-82
2022/08/26 02:29:19;;;;;;;10.18;2.90;;;;;;;20.25;81.00;101433.94;4883457;29;20059;-82
2022/08/26 02:31:44;;;;;;;8.95;2.70;;;;;;;20.24;80.93;101437.56;4892898;29;20041;-82
2022/08/26 02:34:17;;;;;;;9.82;2.58;;;;;;;20.20;81.22;101438.66;4882479;29;20088;-82
2022/08/26 02:36:43;;;;;;;9.18;2.40;;;;;;;20.17;81.66;101439.69;4883677;29;20043;-82
2022/08/26 02:39:09;;;;;;;8.77;2.42;;;;;;;20.18;81.48;101438.75;4887557;29;20045;-82
2022/08/26 02:41:35;;;;;;;9.20;2.55;;;;;;;20.17;80.79;101450.44;4879699;29;20430;-82
2022/08/26 02:44:00;;;;;;;10.70;2.35;;;;;;;20.13;81.27;101446.19;4882227;29;20036;-82
2022/08/26 02:46:26;;;;;;;11.48;3.03;;;;;;;20.09;81.81;101446.44;4877070;29;20500;-82
2022/08/26 02:48:52;;;;;;;14.27;2.78;;;;;;;20.06;81.50;101441.22;4883942;29;20067;-82
2022/08/26 02:51:17;;;;;;;13.23;2.60;;;;;;;20.05;81.97;101442.16;4883099;29;20028;-82
2022/08/26 02:53:43;;;;;;;9.13;2.70;;;;;;;20.04;81.44;101443.97;4886047;29;20041;-81
2022/08/26 02:56:09;;;;;;;8.40;2.50;;;;;;;20.02;81.83;101442.31;4876908;29;20385;-82
2022/08/26 02:58:35;;;;;;;15.48;2.50;;;;;;;20.02;81.25;101439.63;4876769;29;20029;-81
2022/08/26 03:01:01;;;;;;;5.70;2.13;;;;;;;20.03;81.35;101435.97;4879272;29;20033;-82
2022/08/26 03:03:26;;;;;;;12.43;3.05;;;;;;;20.01;81.86;101437.91;4885416;29;20443;-82
2022/08/26 03:05:53;;;;;;;9.88;2.45;;;;;;;20.02;81.18;101442.31;4887168;29;20037;-82
2022/08/26 03:08:19;;;;;;;8.77;2.80;;;;;;;19.96;81.05;101443.53;4882153;29;20068;-82
2022/08/26 03:10:46;;;;;;;12.45;2.85;;;;;;;19.93;80.84;101441.84;4883566;29;20161;-82
2022/08/26 03:13:11;;;;;;;8.30;2.50;;;;;;;19.91;81.13;101442.88;4882764;29;20045;-82
2022/08/26 03:15:38;;;;;;;12.25;2.80;;;;;;;19.91;81.70;101443.75;4886704;29;20045;-81
2022/08/26 03:18:04;;;;;;;8.75;2.78;;;;;;;19.95;81.20;101441.75;4880953;29;20134;-81
2022/08/26 03:20:30;;;;;;;9.60;2.45;;;;;;;19.92;81.52;101439.25;4885210;29;20037;-82
2022/08/26 03:22:55;;;;;;;8.52;2.35;;;;;;;19.91;81.85;101435.69;4906037;29;20500;-81
2022/08/26 03:25:21;;;;;;;7.93;2.33;;;;;;;19.91;81.19;101440.19;4920094;29;20043;-82
2022/08/26 03:27:47;;;;;;;8.27;2.38;;;;;;;19.89;81.66;101437.56;4908027;29;20369;-81
2022/08/26 03:33:00;;;;;;;8.95;1.98;;;;;;;19.87;82.03;101444.84;4916427;29;20035;-82
2022/08/26 03:35:25;;;;;;;9.20;2.40;;;;;;;19.86;81.83;101443.13;4916670;29;20040;-82
2022/08/26 03:37:52;;;;;;;6.80;1.92;;;;;;;19.85;81.97;101446.75;4920765;29;20044;-81
2022/08/26 03:40:18;;;;;;;11.02;2.03;;;;;;;19.84;82.38;101447.69;4920646;29;20400;-82
2022/08/26 03:42:44;;;;;;;11.35;1.83;;;;;;;19.85;82.15;101444.06;4906264;29;20123;-82
2022/08/26 03:45:10;;;;;;;8.45;1.92;;;;;;;19.86;81.94;101447.63;4916927;29;20126;-82
2022/08/26 03:47:37;;;;;;;10.05;2.50;;;;;;;19.88;79.73;101456.47;4921224;29;20024;-82
2022/08/26 03:50:09;;;;;;;9.43;2.33;;;;;;;19.83;82.03;101456.72;4917292;29;20086;-82
2022/08/26 03:52:35;;;;;;;7.82;1.80;;;;;;;19.81;82.38;101452.38;4904833;29;20153;-82
2022/08/26 03:55:00;;;;;;;8.65;2.13;;;;;;;19.80;82.30;101454.16;4918810;29;20206;-82
2022/08/26 03:57:26;;;;;;;8.38;1.90;;;;;;;19.81;82.27;101452.38;4891032;29;20164;-82
2022/08/26 03:59:51;;;;;;;7.55;1.90;;;;;;;19.77;82.74;101452.50;4921710;29;20048;-82
2022/08/26 04:02:17;;;;;;;8.90;2.10;;;;;;;19.79;82.27;101456.94;4907135;29;20055;-82
2022/08/26 04:04:42;;;;;;;5.60;1.85;;;;;;;19.77;81.92;101452.50;4922624;29;20028;-82
2022/08/26 04:07:08;;;;;;;6.38;2.15;;;;;;;19.78;82.43;101450.69;4919819;29;20079;-82
2022/08/26 04:09:33;;;;;;;6.43;1.80;;;;;;;19.76;82.60;101445.41;4905455;29;20039;-82
2022/08/26 04:11:59;;;;;;;7.10;2.28;;;;;;;19.74;81.83;101449.97;4916794;29;20401;-82
2022/08/26 04:14:26;;;;;;;7.13;1.90;;;;;;;19.72;82.43;101454.56;4915023;29;20110;-81
2022/08/26 04:16:53;;;;;;;10.57;2.47;;;;;;;19.72;82.57;101448.31;4913492;29;20032;-82
2022/08/26 04:19:19;;;;;;;8.43;2.10;;;;;;;19.74;81.85;101449.13;4917011;29;20028;-82
2022/08/26 04:21:46;;;;;;;7.25;2.30;;;;;;;19.72;82.48;101449.19;4919223;29;20465;-82
2022/08/26 04:24:14;;;;;;;9.07;1.88;;;;;;;19.73;82.12;101447.34;4902394;29;20047;-82
2022/08/26 04:26:41;;;;;;;7.70;2.00;;;;;;;19.73;82.15;101440.19;4916406;29;20491;-82
2022/08/26 04:29:22;;;;;;;5.97;2.03;;;;;;;19.74;82.11;101436.53;4919020;29;20062;-82
2022/08/26 04:31:47;;;;;;;5.82;1.77;;;;;;;19.73;82.09;101448.25;4919235;29;20474;-82
2022/08/26 04:34:13;;;;;;;6.18;1.92;;;;;;;19.73;82.39;101450.94;4899561;29;20140;-82
2022/08/26 04:36:39;;;;;;;5.80;1.80;;;;;;;19.73;82.52;101452.72;4919216;29;20151;-82
2022/08/26 04:39:05;;;;;;;5.93;2.28;;;;;;;19.69;82.59;101449.34;4921831;29;20064;-81
2022/08/26 04:41:32;;;;;;;11.23;2.55;;;;;;;19.66;83.22;101454.00;4915245;29;20136;-81
2022/08/26 04:43:57;;;;;;;6.63;2.10;;;;;;;19.66;82.97;101452.16;4916740;29;20130;-82
2022/08/26 04:46:24;;;;;;;6.43;1.90;;;;;;;19.62;82.77;101445.19;4916634;29;20138;-82
2022/08/26 04:48:51;;;;;;;7.32;1.85;;;;;;;19.60;83.79;101448.91;4909288;29;20041;-82
2022/08/26 04:51:26;;;;;;;7.18;2.30;;;;;;;19.61;83.31;101454.22;4914988;29;20148;-82
2022/08/26 04:53:55;;;;;;;14.32;2.38;;;;;;;19.68;82.88;101454.78;4915630;29;20397;-82
2022/08/26 04:56:32;;;;;;;11.98;2.10;;;;;;;19.70;82.69;101463.63;4915652;29;20050;-81
2022/08/26 04:58:58;;;;;;;10.13;2.42;;;;;;;19.70;83.29;101469.00;4916255;29;20068;-82
2022/08/26 05:01:24;;;;;;;9.40;2.10;;;;;;;19.71;82.79;101468.09;4899431;29;20094;-82
2022/08/26 05:03:50;;;;;;;6.43;2.10;;;;;;;19.74;83.11;101460.72;4899034;29;20483;-83
2022/08/26 05:06:16;;;;;;;10.02;2.30;;;;;;;19.76;82.93;101463.34;4916385;29;20040;-82
2022/08/26 05:08:41;;;;;;;8.32;2.10;;;;;;;19.80;82.62;101467.59;4911998;29;20075;-81
2022/08/26 05:11:08;;;;;;;10.98;2.45;;;;;;;19.80;83.64;101470.28;4904159;29;20063;-82
2022/08/26 05:13:34;;;;;;;5.47;2.08;;;;;;;19.81;82.28;101464.00;4914636;29;20028;-82
2022/08/26 05:16:05;;;;;;;10.13;2.47;;;;;;;19.84;82.42;101461.13;4915932;29;20063;-82
2022/08/26 05:18:32;;;;;;;9.82;2.60;;;;;;;19.84;82.92;101457.59;4915998;29;20051;-81
2022/08/26 05:21:00;;;;;;;7.57;2.30;;;;;;;19.88;81.93;101457.34;4881092;29;20039;-82
2022/08/26 05:23:26;;;;;;;6.75;2.40;;;;;;;19.88;82.69;101462.72;4907956;29;20063;-81
2022/08/26 05:25:53;;;;;;;9.38;2.45;;;;;;;19.86;81.60;101467.31;4897002;29;20044;-82
2022/08/26 05:28:20;;;;;;;7.72;2.60;;;;;;;19.88;82.38;101465.41;4895664;29;20047;-82
2022/08/26 05:30:47;;;;;;;10.70;2.80;;;;;;;19.92;82.00;101471.50;4893424;29;20047;-82
2022/08/26 05:33:13;;;;;;;12.25;3.17;;;;;;;19.92;82.56;101466.13;4878455;29;20037;-82
2022/08/26 05:35:39;;;;;;;12.07;2.65;;;;;;;19.92;81.55;101463.44;4891822;29;20401;-82
2022/08/26 05:38:06;;;;;;;6.63;1.83;;;;;;;19.94;82.19;101465.09;4895843;29;20111;-82
2022/08/26 05:40:42;;;;;;;7.20;2.00;;;;;;;19.96;81.80;101476.63;4889830;29;20185;-82
2022/08/26 05:43:12;;;;;;;10.43;2.42;;;;;;;19.96;82.17;101471.25;4906275;29;20043;-82
2022/08/26 05:45:40;;;;;;;8.88;2.15;;;;;;;19.95;82.11;101474.91;4895450;29;20036;-82
2022/08/26 05:48:07;;;;;;;6.43;2.25;;;;;;;19.92;82.61;101477.72;4896760;29;20043;-82
2022/08/26 05:50:41;;;;;;;12.93;2.45;;;;;;;19.89;82.40;101483.28;4889584;29;20180;-82
2022/08/26 05:53:08;;;;;;;11.23;2.40;;;;;;;19.90;82.69;101485.00;4879748;29;20485;-82
2022/08/26 05:55:34;;;;;;;10.27;2.83;;;;;;;19.96;82.03;101484.69;4908549;29;20048;-81
2022/08/26 05:57:59;;;;;;;6.03;2.10;;;;;;;20.00;80.67;101488.09;4895609;29;20049;-82
2022/08/26 06:00:26;;;;;;;6.28;1.92;;;;;;;20.02;81.75;101496.09;4895252;29;20087;-82
2022/08/26 06:02:52;;;;;;;9.85;2.22;;;;;;;20.04;81.18;101503.13;4900998;29;20033;-82
2022/08/26 06:05:17;;;;;;;11.32;2.53;;;;;;;20.02;81.70;101499.66;4895339;29;20593;-81
2022/08/26 06:10:27;;;;;;;7.60;2.30;;;;;;;20.10;80.66;101500.16;4893846;29;20044;-82
2022/08/26 06:12:53;;;;;;;6.80;2.10;;;;;;;20.14;80.57;101500.84;4895547;29;20049;-81
2022/08/26 06:15:18;;;;;;;9.98;2.22;;;;;;;20.17;81.42;101514.97;4883823;29;20045;-75
2022/08/26 06:17:44;;;;;;;7.97;2.00;;;;;;;20.18;81.17;101516.75;4894418;29;20068;-75
2022/08/26 06:20:10;;;;;;;9.82;2.20;;;;;;;20.23;80.61;101515.63;4887427;29;20447;-74
2022/08/26 06:25:40;;;;;;;13.00;2.45;;;;;;;20.25;80.10;101524.47;4820721;29;20105;-74
2022/08/26 06:28:06;;;;;;;7.55;2.30;;;;;;;20.24;80.09;101515.53;4892420;29;20119;-74
2022/08/26 06:30:36;;;;;;;10.60;2.05;;;;;;;20.24;79.92;101523.63;4904097;29;20087;-74
2022/08/26 06:33:02;;;;;;;7.30;2.10;;;;;;;20.20;80.35;101519.34;4915128;29;20039;-75
2022/08/26 06:35:28;;;;;;;8.30;1.90;;;;;;;20.23;80.33;101526.38;4882916;29;20044;-75
2022/08/26 06:37:54;;;;;;;12.23;2.08;;;;;;;20.26;79.76;101539.69;4915095;29;20111;-75
2022/08/26 06:40:22;;;;;;;9.00;2.10;;;;;;;20.28;80.03;101535.09;4914919;29;20051;-74
2022/08/26 06:42:47;;;;;;;10.48;2.08;;;;;;;20.26;79.82;101532.47;4915246;29;20364;-75
2022/08/26 06:45:12;;;;;;;7.72;1.80;;;;;;;20.26;79.81;101532.47;4882337;29;20051;-74
2022/08/26 06:47:38;;;;;;;11.73;2.13;;;;;;;20.30;79.09;101538.56;4879475;29;20126;-75
2022/08/26 06:50:04;;;;;;;8.40;2.30;;;;;;;20.32;78.89;101532.16;4893924;29;20036;-75
2022/08/26 06:52:29;;;;;;;6.82;1.90;;;;;;;20.39;79.41;101540.78;4899729;29;20174;-75
2022/08/26 06:54:55;;;;;;;6.45;1.98;;;;;;;20.44;78.00;101536.03;4918532;29;20115;-74
2022/08/26 06:57:20;;;;;;;8.75;1.50;;;;;;;20.46;78.32;101539.50;4901414;29;20397;-74
2022/08/26 06:59:46;;;;;;;11.73;2.00;;;;;;;20.54;78.40;101545.34;4918271;29;20036;-74
2022/08/26 07:02:12;;;;;;;4.65;1.65;;;;;;;20.63;78.35;101545.88;4918247;29;20465;-75
2022/08/26 07:04:37;;;;;;;8.90;1.70;;;;;;;20.68;77.48;101546.50;4907101;29;20064;-75
2022/08/26 07:07:03;;;;;;;8.30;2.47;;;;;;;20.74;76.90;101551.53;4918361;29;20064;-75
2022/08/26 07:09:31;;;;;;;8.90;1.88;;;;;;;20.71;76.28;101544.50;4901229;29;20527;-75
2022/08/26 07:11:57;;;;;;;7.45;2.10;;;;;;;20.72;76.62;101539.97;4918359;29;21082;-75
2022/08/26 07:14:24;;;;;;;9.70;2.20;;;;;;;20.73;77.18;101545.28;4912559;29;20039;-74
2022/08/26 07:16:50;;;;;;;5.68;1.83;;;;;;;20.80;76.53;101544.03;4909387;29;20533;-75
2022/08/26 07:19:20;;;;;;;4.97;1.33;;;;;;;20.86;76.85;101547.34;4917765;29;20024;-75
2022/08/26 07:21:46;;;;;;;6.70;1.80;;;;;;;20.91;75.92;101547.94;4901018;29;20080;-75
2022/08/26 07:24:11;;;;;;;6.72;1.98;;;;;;;20.90;75.73;101544.41;4897576;29;20444;-75
2022/08/26 07:26:37;;;;;;;11.95;1.77;;;;;;;20.88;75.93;101540.06;4898118;29;20045;-74
2022/08/26 07:29:03;;;;;;;10.10;2.00;;;;;;;20.92;75.89;101545.19;4881788;29;20025;-75
2022/08/26 07:31:31;;;;;;;8.32;1.67;;;;;;;20.95;75.35;101545.00;4897956;29;20040;-75
2022/08/26 07:33:57;;;;;;;9.73;1.70;;;;;;;20.96;75.62;101548.56;4898799;29;20048;-75
2022/08/26 07:36:27;;;;;;;8.70;1.88;;;;;;;21.00;74.69;101547.47;4913414;29;20043;-75
2022/08/26 07:38:52;;;;;;;13.18;2.28;;;;;;;21.01;75.04;101549.19;4898319;29;20044;-74
2022/08/26 07:41:22;;;;;;;9.77;2.50;;;;;;;21.09;75.57;101557.72;4902963;29;20037;-75
2022/08/26 07:43:47;;;;;;;8.63;2.22;;;;;;;21.13;74.86;101547.66;4894720;29;20075;-75
2022/08/26 07:46:17;;;;;;;11.68;1.75;;;;;;;21.17;74.01;101563.56;4882147;29;20438;-75
2022/08/26 07:48:44;;;;;;;7.35;1.75;;;;;;;21.22;74.34;101555.25;4908906;29;20035;-75
2022/08/26 07:51:10;;;;;;;10.63;2.25;;;;;;;21.29;73.29;101562.03;4896928;29;20028;-75
2022/08/26 07:53:35;;;;;;;7.20;1.77;;;;;;;21.34;72.82;101561.75;4880761;29;20048;-76
2022/08/26 07:56:01;;;;;;;7.75;1.95;;;;;;;21.35;72.47;101563.50;4898646;29;20533;-75
2022/08/26 07:58:27;;;;;;;10.95;1.85;;;;;;;21.31;71.98;101567.31;4897030;29;20044;-76
2022/08/26 08:00:53;;;;;;;5.63;1.58;;;;;;;21.30;71.73;101569.16;4898706;29;20051;-75
2022/08/26 08:03:19;;;;;;;10.30;1.70;;;;;;;21.38;72.61;101566.03;4877757;29;20041;-76
2022/08/26 08:05:45;;;;;;;7.72;1.92;;;;;;;21.40;72.35;101559.63;4882920;29;20104;-75
2022/08/26 08:08:10;;;;;;;7.32;2.15;;;;;;;21.45;71.91;101562.06;4902026;29;20048;-75
2022/08/26 08:10:36;;;;;;;42.28;2.47;;;;;;;21.52;72.05;101565.28;4893827;29;20041;-76
2022/08/26 08:13:04;;;;;;;10.05;2.10;;;;;;;21.57;71.07;101571.28;4894702;29;20132;-76
2022/08/26 08:15:31;;;;;;;13.05;2.17;;;;;;;21.58;70.38;101570.31;4896521;29;20489;-76
2022/08/26 08:17:57;;;;;;;6.43;1.55;;;;;;;21.59;71.24;101567.56;4895129;29;20048;-75
2022/08/26 08:20:24;;;;;;;9.57;1.60;;;;;;;21.66;70.55;101566.25;4880615;29;20032;-75
2022/08/26 08:22:50;;;;;;;6.28;1.90;;;;;;;21.74;70.49;101573.03;4897509;29;20457;-75
2022/08/26 08:25:16;;;;;;;10.38;1.73;;;;;;;21.80;69.72;101565.44;4915485;29;20052;-75
2022/08/26 08:27:43;;;;;;;6.50;2.08;;;;;;;21.80;69.30;101572.66;4912586;29;20114;-74
2022/08/26 08:30:10;;;;;;;7.30;1.65;;;;;;;21.88;69.13;101576.69;4916264;29;20057;-75
2022/08/26 08:32:42;;;;;;;9.00;1.83;;;;;;;21.92;69.51;101579.19;4899308;29;20023;-75
2022/08/26 08:35:10;;;;;;;8.20;1.95;;;;;;;21.90;68.85;101580.13;4899413;29;20048;-75
2022/08/26 08:37:35;;;;;;;6.25;1.75;;;;;;;21.92;69.31;101582.75;4916254;29;20032;-75
2022/08/26 08:40:03;;;;;;;11.13;2.13;;;;;;;21.78;68.81;101578.13;4915621;29;20493;-74
2022/08/26 08:42:44;;;;;;;8.80;1.92;;;;;;;21.77;68.64;101583.63;4882741;29;20040;-75
2022/08/26 08:45:38;;;;;;;7.50;1.90;;;;;;;21.77;68.83;101586.31;4915894;29;20532;-75
2022/08/26 08:48:21;;;;;;;7.25;1.58;;;;;;;21.81;68.20;101582.47;4911714;29;20042;-75
2022/08/26 08:50:53;;;;;;;11.68;1.80;;;;;;;21.80;67.99;101583.44;4878099;29;20124;-74
2022/08/26 08:53:19;;;;;;;9.48;1.88;;;;;;;21.84;68.15;101587.72;4912511;29;20075;-74
2022/08/26 08:56:12;;;;;;;7.72;2.03;;;;;;;21.92;68.83;101581.88;4898525;29;20067;-75
2022/08/26 08:59:20;;;;;;;7.30;1.70;;;;;;;22.01;68.27;101579.53;4882890;29;20043;-75
2022/08/26 09:02:17;;;;;;;7.90;2.25;;;;;;;22.07;67.87;101581.00;4860184;29;20505;-75
2022/08/26 09:04:54;;;;;;;9.77;2.13;;;;;;;22.04;67.93;101576.63;4869103;29;20526;-75
2022/08/26 09:07:32;;;;;;;6.80;1.70;;;;;;;22.01;67.84;101573.28;4887211;29;20040;-75
2022/08/26 09:10:12;;;;;;;8.20;2.08;;;;;;;22.08;68.27;101580.00;4897697;29;20039;-75
2022/08/26 09:12:38;;;;;;;10.35;1.73;;;;;;;22.07;67.55;101581.84;4911204;29;20365;-75
2022/08/26 09:15:12;;;;;;;6.93;1.90;;;;;;;22.04;67.73;101587.44;4893123;29;20069;-75
2022/08/26 09:17:51;;;;;;;8.65;1.75;;;;;;;22.00;67.52;101585.84;4910568;29;20046;-75
2022/08/26 09:20:19;;;;;;;9.43;2.00;;;;;;;21.97;67.55;101587.88;4910251;29;20492;-75
2022/08/26 09:22:45;;;;;;;7.05;2.33;;;;;;;22.00;67.96;101596.66;4902854;29;20048;-75
2022/08/26 09:25:13;;;;;;;14.15;1.95;;;;;;;21.99;67.76;101594.06;4901281;29;20046;-75
2022/08/26 09:27:50;;;;;;;12.80;1.90;;;;;;;22.03;67.83;101592.91;4913101;29;20040;-75
2022/08/26 09:30:31;;;;;;;9.50;1.75;;;;;;;22.03;67.62;101590.19;4915271;29;20055;-76
2022/08/26 09:33:02;;;;;;;12.95;2.10;;;;;;;22.00;67.65;101587.69;4912809;29;20032;-75
2022/08/26 09:35:37;;;;;;;8.00;1.58;;;;;;;22.04;67.99;101587.44;4882515;29;20472;-75
2022/08/26 09:38:22;;;;;;;10.63;2.33;;;;;;;22.05;67.09;101591.84;4896727;29;20067;-75
2022/08/26 09:41:03;;;;;;;10.10;2.05;;;;;;;22.11;67.01;101590.66;4915412;29;20040;-75
2022/08/26 09:43:29;;;;;;;8.50;1.80;;;;;;;22.11;66.82;101594.22;4911363;29;20036;-75
2022/08/26 09:46:09;;;;;;;11.68;1.60;;;;;;;22.19;66.94;101592.91;4888718;29;20503;-75
2022/08/26 09:48:38;;;;;;;5.18;1.55;;;;;;;22.15;66.51;101602.97;4897477;29;20044;-75
2022/08/26 09:51:27;;;;;;;12.95;1.90;;;;;;;22.12;66.79;101603.16;4898842;29;20055;-75
2022/08/26 09:53:55;;;;;;;7.18;1.73;;;;;;;22.09;66.41;101604.22;4915494;29;20039;-75
2022/08/26 09:56:31;;;;;;;8.57;1.90;;;;;;;22.05;66.13;101604.47;4915633;29;20040;-74
2022/08/26 09:58:58;;;;;;;5.68;1.92;;;;;;;22.01;66.28;101609.19;4898424;29;20485;-74
2022/08/26 10:01:27;;;;;;;11.90;2.33;;;;;;;21.94;65.73;101602.41;4915754;29;20457;-75
2022/08/26 10:04:04;;;;;;;8.13;1.75;;;;;;;21.95;66.47;101596.03;4901762;29;20412;-75
2022/08/26 10:06:38;;;;;;;10.32;2.33;;;;;;;21.92;65.79;101598.94;4913294;29;20384;-75
2022/08/26 10:09:06;;;;;;;11.25;2.03;;;;;;;21.84;66.19;101596.69;4912516;29;20083;-75
2022/08/26 10:11:55;;;;;;;9.07;1.77;;;;;;;21.87;66.15;101599.19;4898098;29;20470;-75
2022/08/26 10:14:29;;;;;;;8.02;1.73;;;;;;;21.93;66.31;101603.34;4896403;29;20052;-75
2022/08/26 10:17:05;;;;;;;13.02;2.30;;;;;;;21.85;66.19;101611.03;4913573;29;20472;-75
2022/08/26 10:19:45;;;;;;;6.35;1.30;;;;;;;21.84;66.13;101604.75;4907546;29;20080;-75
2022/08/26 10:22:17;;;;;;;5.85;1.98;;;;;;;21.86;66.58;101607.38;4913269;29;20040;-75
2022/08/26 10:24:54;;;;;;;10.73;1.77;;;;;;;21.88;66.43;101609.03;4914837;29;20488;-75
2022/08/26 10:27:26;;;;;;;6.93;1.48;;;;;;;21.90;66.49;101609.78;4894211;29;20132;-75
2022/08/26 10:30:00;;;;;;;8.20;1.58;;;;;;;21.88;65.45;101611.72;4904789;29;20040;-75
2022/08/26 10:32:35;;;;;;;8.85;1.65;;;;;;;21.90;65.90;101604.41;4918389;29;20419;-74
2022/08/26 10:35:01;;;;;;;9.77;1.60;;;;;;;21.94;65.43;101596.16;4914929;29;20032;-86
2022/08/26 10:37:52;;;;;;;8.18;1.52;;;;;;;21.96;65.85;101608.59;4900078;29;20095;-83
2022/08/26 10:40:36;;;;;;;8.68;1.90;;;;;;;21.90;65.51;101603.53;4911347;29;20040;-83
2022/08/26 10:43:14;;;;;;;4.97;1.40;;;;;;;21.87;65.62;101609.09;4915892;29;20028;-85
2022/08/26 10:45:49;;;;;;;9.43;2.30;;;;;;;21.81;65.90;101607.63;4905373;29;20032;-83
2022/08/26 10:48:34;;;;;;;7.78;1.60;;;;;;;21.83;66.07;101602.13;4917144;29;20309;-83
2022/08/26 10:51:00;;;;;;;8.30;1.95;;;;;;;21.83;66.28;101603.00;4917483;29;20115;-84
2022/08/26 10:53:43;;;;;;;6.95;1.80;;;;;;;21.83;66.57;101603.00;4906853;29;20091;-83
2022/08/26 10:56:12;;;;;;;9.77;2.10;;;;;;;21.88;66.18;101605.44;4908702;29;20476;-83
2022/08/26 10:58:53;;;;;;;5.57;1.70;;;;;;;21.93;66.09;101602.50;4890549;29;20047;-84
2022/08/26 11:01:42;;;;;;;6.60;1.98;;;;;;;21.93;65.92;101600.66;4896715;29;20048;-84
2022/08/26 11:04:36;;;;;;;12.73;1.88;;;;;;;21.96;65.79;101603.19;4918194;29;20123;-83
2022/08/26 11:07:29;;;;;;;6.45;1.70;;;;;;;22.02;65.94;101604.66;4917875;29;20080;-83
2022/08/26 11:10:00;;;;;;;11.23;1.77;;;;;;;22.02;65.92;101605.53;4916022;29;20032;-84
2022/08/26 11:12:35;;;;;;;;;;;;;;;22.12;65.67;101606.72;4901424;29;20036;-84
2022/08/26 11:15:05;;;;;;;5.45;1.55;;;;;;;22.05;64.97;101612.56;4906448;29;19922;-84
2022/08/26 11:17:45;;;;;;;9.02;1.60;;;;;;;22.05;65.09;101615.25;4901567;29;20056;-84
2022/08/26 11:20:17;;;;;;;7.18;1.52;;;;;;;21.94;65.26;101607.81;4915538;29;20040;-83
2022/08/26 11:22:43;;;;;;;10.43;1.95;;;;;;;21.85;65.90;101605.63;4898327;29;20032;-83
2022/08/26 11:25:11;;;;;;;10.23;2.05;;;;;;;21.82;66.08;101603.97;4884572;29;20119;-84
2022/08/26 11:27:37;;;;;;;14.88;2.22;;;;;;;21.87;66.87;101603.72;4897128;29;20432;-84
2022/08/26 11:30:05;;;;;;;5.10;1.55;;;;;;;21.82;66.47;101597.72;4912413;29;20064;-84
2022/08/26 11:32:33;;;;;;;9.15;2.03;;;;;;;21.81;67.10;101602.25;4918291;29;20136;-83
2022/08/26 11:35:02;;;;;;;15.20;2.40;;;;;;;21.71;66.38;101614.50;4901508;29;20040;-83
2022/08/26 11:37:41;;;;;;;8.57;1.83;;;;;;;21.68;66.91;101603.88;4895708;29;20087;-83
2022/08/26 11:40:25;;;;;;;9.88;1.80;;;;;;;21.63;66.65;101596.06;4918063;29;20068;-84